M I D A S
Marine Information and Data Acquisition System
Tripno 1565 of the Zeeleeuw from 2008-09-12 08:00:00 to 2008-09-12 17:00:00
Back to CruiseResearch ActivitiesStationsMapUnderway DataData graphs

EquipmentUnitsComments
TimeDGPSUTC
LatitudeDGPSDM.mWGS84
LongitudeDGPSDM.mWGS84
SpeedMeteo Stationm/sRelative wind speed
DirectionMeteo StationdegRelative wind direction
TemperatureMeteo Stationdeg CelciusAir temperature
PressureMeteo StationPaAtmospheric pressure
HumidityMeteo Station%Relative humidity
Missing or incorrect values are displayed as -999
Metereological data collected by the RV Zeeleeuw from 2008-09-12 08:00:00 to 2008-09-12 17:00:00
Time Latitude Longitude Speed Direction Temperature Pressure Humidity
2008-09-12 08:02 51°33.423 2°54.008 -999 -999 -999 -999 -999
2008-09-12 08:04 51°33.441 2°53.97 -999 -999 -999 -999 -999
2008-09-12 08:06 51°33.45 2°53.938 -999 -999 -999 -999 -999
2008-09-12 08:08 51°33.446 2°53.932 -999 -999 -999 -999 -999
2008-09-12 08:10 51°33.434 2°53.943 -999 -999 -999 -999 -999
2008-09-12 08:12 51°33.417 2°53.962 -999 -999 -999 -999 -999
2008-09-12 08:14 51°33.412 2°53.994 -999 -999 -999 -999 -999
2008-09-12 08:16 51°33.367 2°54.153 -999 -999 -999 -999 -999
2008-09-12 08:18 51°33.298 2°54.306 -999 -999 -999 -999 -999
2008-09-12 08:20 51°33.234 2°54.404 -999 -999 -999 -999 -999
2008-09-12 08:22 51°33.169 2°54.471 -999 -999 -999 -999 -999
2008-09-12 08:24 51°33.122 2°54.53 -999 -999 -999 -999 -999
2008-09-12 08:26 51°33.083 2°54.564 -999 -999 -999 -999 -999
2008-09-12 08:28 51°33.052 2°54.586 -999 -999 -999 -999 -999
2008-09-12 08:30 51°33.027 2°54.605 -999 -999 -999 -999 -999
2008-09-12 08:32 51°33.009 2°54.635 -999 -999 -999 -999 -999
2008-09-12 08:34 51°32.992 2°54.67 -999 -999 -999 -999 -999
2008-09-12 08:36 51°32.966 2°54.792 -999 -999 -999 -999 -999
2008-09-12 08:38 51°33.06 2°54.796 -999 -999 -999 -999 -999
2008-09-12 08:40 51°33.173 2°54.773 -999 -999 -999 -999 -999
2008-09-12 08:42 51°33.212 2°54.761 -999 -999 -999 -999 -999
2008-09-12 08:44 51°33.227 2°54.768 -999 -999 -999 -999 -999
2008-09-12 08:46 51°33.228 2°54.798 -999 -999 -999 -999 -999
2008-09-12 08:48 51°33.223 2°54.837 -999 -999 -999 -999 -999
2008-09-12 08:50 51°33.216 2°54.88 -999 -999 -999 -999 -999
2008-09-12 08:52 51°33.208 2°54.925 -999 -999 -999 -999 -999
2008-09-12 08:54 51°33.205 2°54.968 -999 -999 -999 -999 -999
2008-09-12 08:56 51°33.205 2°55.011 -999 -999 -999 -999 -999
2008-09-12 08:58 51°33.232 2°55.019 -999 -999 -999 -999 -999
2008-09-12 09:00 51°33.269 2°54.965 -999 -999 -999 -999 -999
2008-09-12 09:02 51°33.309 2°54.886 -999 -999 -999 -999 -999
2008-09-12 09:04 51°33.369 2°54.836 -999 -999 -999 -999 -999
2008-09-12 09:06 51°33.425 2°54.819 -999 -999 -999 -999 -999
2008-09-12 09:08 51°33.475 2°54.802 -999 -999 -999 -999 -999
2008-09-12 09:10 51°33.528 2°54.808 -999 -999 -999 -999 -999
2008-09-12 09:12 51°33.585 2°54.851 -999 -999 -999 -999 -999
2008-09-12 09:14 51°33.624 2°54.884 -999 -999 -999 -999 -999
2008-09-12 09:16 51°33.643 2°54.923 -999 -999 -999 -999 -999
2008-09-12 09:18 51°33.663 2°54.963 -999 -999 -999 -999 -999
2008-09-12 09:20 51°33.582 2°54.735 -999 -999 -999 -999 -999
2008-09-12 09:22 51°33.386 2°54.225 -999 -999 -999 -999 -999
2008-09-12 09:24 51°33.191 2°53.695 -999 -999 -999 -999 -999
2008-09-12 09:26 51°33.009 2°53.143 -999 -999 -999 -999 -999
2008-09-12 09:28 51°32.827 2°52.596 -999 -999 -999 -999 -999
2008-09-12 09:30 51°32.64 2°52.058 -999 -999 -999 -999 -999
2008-09-12 09:32 51°32.449 2°51.523 -999 -999 -999 -999 -999
2008-09-12 09:34 51°32.258 2°50.988 -999 -999 -999 -999 -999
2008-09-12 09:36 51°32.079 2°50.444 -999 -999 -999 -999 -999
2008-09-12 09:38 51°31.895 2°49.909 -999 -999 -999 -999 -999
2008-09-12 09:40 51°31.705 2°49.386 -999 -999 -999 -999 -999
2008-09-12 09:42 51°31.493 2°48.878 -999 -999 -999 -999 -999
2008-09-12 09:44 51°31.288 2°48.375 -999 -999 -999 -999 -999
2008-09-12 09:46 51°31.082 2°47.87 -999 -999 -999 -999 -999
2008-09-12 09:48 51°30.881 2°47.357 -999 -999 -999 -999 -999
2008-09-12 09:50 51°30.684 2°46.848 -999 -999 -999 -999 -999
2008-09-12 09:52 51°30.48 2°46.351 -999 -999 -999 -999 -999
2008-09-12 09:54 51°30.289 2°45.836 -999 -999 -999 -999 -999
2008-09-12 09:56 51°30.086 2°45.334 -999 -999 -999 -999 -999
2008-09-12 09:58 51°29.889 2°44.825 -999 -999 -999 -999 -999
2008-09-12 10:00 51°29.703 2°44.313 -999 -999 -999 -999 -999
2008-09-12 10:02 51°29.503 2°43.818 -999 -999 -999 -999 -999
2008-09-12 10:04 51°29.315 2°43.309 -999 -999 -999 -999 -999
2008-09-12 10:06 51°29.122 2°42.803 -999 -999 -999 -999 -999
2008-09-12 10:08 51°28.919 2°42.306 -999 -999 -999 -999 -999
2008-09-12 10:10 51°28.734 2°41.787 -999 -999 -999 -999 -999
2008-09-12 10:12 51°28.563 2°41.256 -999 -999 -999 -999 -999
2008-09-12 10:14 51°28.388 2°40.733 -999 -999 -999 -999 -999
2008-09-12 10:16 51°28.205 2°40.222 -999 -999 -999 -999 -999
2008-09-12 10:18 51°28.03 2°39.705 -999 -999 -999 -999 -999
2008-09-12 10:20 51°27.856 2°39.189 -999 -999 -999 -999 -999
2008-09-12 10:22 51°27.704 2°38.653 -999 -999 -999 -999 -999
2008-09-12 10:24 51°27.539 2°38.129 -999 -999 -999 -999 -999
2008-09-12 10:26 51°27.382 2°37.597 -999 -999 -999 -999 -999
2008-09-12 10:28 51°27.226 2°37.067 -999 -999 -999 -999 -999
2008-09-12 10:30 51°27.077 2°36.537 -999 -999 -999 -999 -999
2008-09-12 10:32 51°26.928 2°36.008 -999 -999 -999 -999 -999
2008-09-12 10:34 51°26.789 2°35.466 -999 -999 -999 -999 -999
2008-09-12 10:36 51°26.639 2°34.934 -999 -999 -999 -999 -999
2008-09-12 10:38 51°26.483 2°34.399 -999 -999 -999 -999 -999
2008-09-12 10:40 51°26.321 2°33.873 -999 -999 -999 -999 -999
2008-09-12 10:42 51°26.169 2°33.344 -999 -999 -999 -999 -999
2008-09-12 10:44 51°26.024 2°32.804 -999 -999 -999 -999 -999
2008-09-12 10:46 51°25.875 2°32.276 -999 -999 -999 -999 -999
2008-09-12 10:48 51°25.728 2°31.738 -999 -999 -999 -999 -999
2008-09-12 10:50 51°25.574 2°31.207 -999 -999 -999 -999 -999
2008-09-12 10:52 51°25.426 2°30.678 -999 -999 -999 -999 -999
2008-09-12 10:54 51°25.243 2°30.219 -999 -999 -999 -999 -999
2008-09-12 10:56 51°24.97 2°29.852 -999 -999 -999 -999 -999
2008-09-12 10:58 51°24.794 2°29.361 -999 -999 -999 -999 -999
2008-09-12 11:00 51°24.726 2°28.931 -999 -999 -999 -999 -999
2008-09-12 11:02 51°24.733 2°28.785 -999 -999 -999 -999 -999
2008-09-12 11:04 51°24.739 2°28.719 -999 -999 -999 -999 -999
2008-09-12 11:06 51°24.748 2°28.701 -999 -999 -999 -999 -999
2008-09-12 11:08 51°24.763 2°28.704 -999 -999 -999 -999 -999
2008-09-12 11:10 51°24.778 2°28.723 -999 -999 -999 -999 -999
2008-09-12 11:12 51°24.794 2°28.759 -999 -999 -999 -999 -999
2008-09-12 11:14 51°24.803 2°28.752 -999 -999 -999 -999 -999
2008-09-12 11:16 51°24.768 2°28.643 -999 -999 -999 -999 -999
2008-09-12 11:18 51°24.759 2°28.695 -999 -999 -999 -999 -999
2008-09-12 11:20 51°24.795 2°28.757 -999 -999 -999 -999 -999
2008-09-12 11:22 51°24.792 2°28.807 -999 -999 -999 -999 -999
2008-09-12 11:24 51°24.728 2°28.733 -999 -999 -999 -999 -999
2008-09-12 11:26 51°24.739 2°28.688 -999 -999 -999 -999 -999
2008-09-12 11:28 51°24.757 2°28.701 -999 -999 -999 -999 -999
2008-09-12 11:30 51°24.779 2°28.723 -999 -999 -999 -999 -999
2008-09-12 11:32 51°24.796 2°28.757 -999 -999 -999 -999 -999
2008-09-12 11:34 51°24.805 2°28.777 -999 -999 -999 -999 -999
2008-09-12 11:36 51°24.754 2°28.749 -999 -999 -999 -999 -999
2008-09-12 11:38 51°24.755 2°28.701 -999 -999 -999 -999 -999
2008-09-12 11:40 51°24.775 2°28.717 -999 -999 -999 -999 -999
2008-09-12 11:42 51°24.797 2°28.746 -999 -999 -999 -999 -999
2008-09-12 11:44 51°24.815 2°28.755 -999 -999 -999 -999 -999
2008-09-12 11:46 51°24.768 2°28.757 -999 -999 -999 -999 -999
2008-09-12 11:48 51°24.758 2°28.717 -999 -999 -999 -999 -999
2008-09-12 11:50 51°24.775 2°28.71 -999 -999 -999 -999 -999
2008-09-12 11:52 51°24.793 2°28.751 -999 -999 -999 -999 -999
2008-09-12 11:54 51°24.808 2°28.787 -999 -999 -999 -999 -999
2008-09-12 11:56 51°24.757 2°28.758 -999 -999 -999 -999 -999
2008-09-12 11:58 51°24.734 2°28.694 -999 -999 -999 -999 -999
2008-09-12 13:00 51°24.937 2°32.136 -999 -999 -999 -999 -999
2008-09-12 13:02 51°24.952 2°32.183 -999 -999 -999 -999 -999
2008-09-12 13:04 51°24.966 2°32.228 -999 -999 -999 -999 -999
2008-09-12 13:06 51°24.98 2°32.271 -999 -999 -999 -999 -999
2008-09-12 13:08 51°24.995 2°32.31 -999 -999 -999 -999 -999
2008-09-12 13:10 51°25.008 2°32.344 -999 -999 -999 -999 -999
2008-09-12 13:12 51°25.023 2°32.382 -999 -999 -999 -999 -999
2008-09-12 13:14 51°25.04 2°32.419 -999 -999 -999 -999 -999
2008-09-12 13:16 51°25.058 2°32.451 -999 -999 -999 -999 -999
2008-09-12 13:18 51°25.073 2°32.481 -999 -999 -999 -999 -999
2008-09-12 13:20 51°25.09 2°32.51 -999 -999 -999 -999 -999
2008-09-12 13:22 51°25.109 2°32.536 -999 -999 -999 -999 -999
2008-09-12 13:24 51°25.129 2°32.563 -999 -999 -999 -999 -999
2008-09-12 13:26 51°25.152 2°32.595 -999 -999 -999 -999 -999
2008-09-12 13:28 51°25.173 2°32.623 -999 -999 -999 -999 -999
2008-09-12 13:30 51°25.196 2°32.652 -999 -999 -999 -999 -999
2008-09-12 13:32 51°25.205 2°32.66 -999 -999 -999 -999 -999
2008-09-12 13:34 51°25.235 2°32.54 -999 -999 -999 -999 -999
2008-09-12 13:36 51°25.199 2°32.401 -999 -999 -999 -999 -999
2008-09-12 13:38 51°25.143 2°32.246 -999 -999 -999 -999 -999
2008-09-12 13:40 51°25.052 2°32.166 -999 -999 -999 -999 -999
2008-09-12 13:42 51°25.016 2°32.169 -999 -999 -999 -999 -999
2008-09-12 13:44 51°25.009 2°32.18 -999 -999 -999 -999 -999
2008-09-12 13:46 51°25.013 2°32.2 -999 -999 -999 -999 -999
2008-09-12 13:48 51°25.022 2°32.22 -999 -999 -999 -999 -999
2008-09-12 13:50 51°25.036 2°32.236 -999 -999 -999 -999 -999
2008-09-12 13:52 51°25.055 2°32.253 -999 -999 -999 -999 -999
2008-09-12 13:54 51°25.08 2°32.271 -999 -999 -999 -999 -999
2008-09-12 13:56 51°25.107 2°32.29 -999 -999 -999 -999 -999
2008-09-12 13:58 51°25.135 2°32.309 -999 -999 -999 -999 -999
2008-09-12 14:00 51°25.162 2°32.329 -999 -999 -999 -999 -999
2008-09-12 14:02 51°25.189 2°32.351 -999 -999 -999 -999 -999
2008-09-12 14:04 51°25.215 2°32.372 -999 -999 -999 -999 -999
2008-09-12 14:06 51°25.243 2°32.39 -999 -999 -999 -999 -999
2008-09-12 14:08 51°25.267 2°32.408 -999 -999 -999 -999 -999
2008-09-12 14:10 51°25.291 2°32.425 -999 -999 -999 -999 -999
2008-09-12 14:12 51°25.317 2°32.439 -999 -999 -999 -999 -999
2008-09-12 14:14 51°25.329 2°32.347 -999 -999 -999 -999 -999
2008-09-12 14:16 51°25.298 2°32.16 -999 -999 -999 -999 -999
2008-09-12 14:18 51°25.271 2°32.041 -999 -999 -999 -999 -999
2008-09-12 14:20 51°25.252 2°32.004 -999 -999 -999 -999 -999
2008-09-12 14:22 51°25.213 2°31.962 -999 -999 -999 -999 -999
2008-09-12 14:24 51°25.119 2°31.85 -999 -999 -999 -999 -999
2008-09-12 14:26 51°25.089 2°31.804 -999 -999 -999 -999 -999
2008-09-12 14:28 51°25.08 2°31.796 -999 -999 -999 -999 -999
2008-09-12 14:30 51°25.08 2°31.803 -999 -999 -999 -999 -999
2008-09-12 14:32 51°25.084 2°31.821 -999 -999 -999 -999 -999
2008-09-12 14:34 51°25.041 2°31.797 -999 -999 -999 -999 -999
2008-09-12 14:36 51°24.993 2°31.766 -999 -999 -999 -999 -999
2008-09-12 14:38 51°24.972 2°31.766 -999 -999 -999 -999 -999
2008-09-12 14:40 51°24.931 2°31.774 -999 -999 -999 -999 -999
2008-09-12 14:42 51°24.739 2°32.03 -999 -999 -999 -999 -999
2008-09-12 14:44 51°24.457 2°32.448 -999 -999 -999 -999 -999
2008-09-12 14:46 51°24.25 2°32.991 -999 -999 -999 -999 -999
2008-09-12 14:48 51°24.045 2°33.546 -999 -999 -999 -999 -999
2008-09-12 14:50 51°23.841 2°34.086 -999 -999 -999 -999 -999
2008-09-12 14:52 51°23.612 2°34.59 -999 -999 -999 -999 -999
2008-09-12 14:54 51°23.234 2°34.767 -999 -999 -999 -999 -999
2008-09-12 14:56 51°22.853 2°34.926 -999 -999 -999 -999 -999
2008-09-12 14:58 51°22.475 2°35.034 -999 -999 -999 -999 -999
2008-09-12 15:00 51°22.152 2°35.366 -999 -999 -999 -999 -999
2008-09-12 15:02 51°21.936 2°35.891 -999 -999 -999 -999 -999
2008-09-12 15:04 51°21.756 2°36.458 -999 -999 -999 -999 -999
2008-09-12 15:06 51°21.577 2°37.014 -999 -999 -999 -999 -999
2008-09-12 15:08 51°21.414 2°37.584 -999 -999 -999 -999 -999
2008-09-12 15:10 51°21.26 2°38.16 -999 -999 -999 -999 -999
2008-09-12 15:12 51°21.099 2°38.731 -999 -999 -999 -999 -999
2008-09-12 15:14 51°20.934 2°39.304 -999 -999 -999 -999 -999
2008-09-12 15:16 51°20.769 2°39.872 -999 -999 -999 -999 -999
2008-09-12 15:18 51°20.619 2°40.444 -999 -999 -999 -999 -999
2008-09-12 15:20 51°20.462 2°41.021 -999 -999 -999 -999 -999
2008-09-12 15:22 51°20.311 2°41.593 -999 -999 -999 -999 -999
2008-09-12 15:24 51°20.154 2°42.157 -999 -999 -999 -999 -999
2008-09-12 15:26 51°19.998 2°42.727 -999 -999 -999 -999 -999
2008-09-12 15:28 51°19.841 2°43.305 -999 -999 -999 -999 -999
2008-09-12 15:30 51°19.69 2°43.885 -999 -999 -999 -999 -999
2008-09-12 15:32 51°19.518 2°44.457 -999 -999 -999 -999 -999
2008-09-12 15:34 51°19.355 2°45.013 -999 -999 -999 -999 -999
2008-09-12 15:36 51°19.115 2°45.479 -999 -999 -999 -999 -999
2008-09-12 15:38 51°18.877 2°45.972 -999 -999 -999 -999 -999
2008-09-12 15:40 51°18.642 2°46.472 -999 -999 -999 -999 -999
2008-09-12 15:42 51°18.409 2°46.972 -999 -999 -999 -999 -999
2008-09-12 15:44 51°18.179 2°47.471 -999 -999 -999 -999 -999
2008-09-12 15:46 51°17.947 2°47.957 -999 -999 -999 -999 -999
2008-09-12 15:48 51°17.696 2°48.41 -999 -999 -999 -999 -999
2008-09-12 15:50 51°17.427 2°48.848 -999 -999 -999 -999 -999
2008-09-12 15:52 51°17.132 2°49.262 -999 -999 -999 -999 -999
2008-09-12 15:54 51°16.835 2°49.673 -999 -999 -999 -999 -999
2008-09-12 15:56 51°16.543 2°50.096 -999 -999 -999 -999 -999
2008-09-12 15:58 51°16.266 2°50.525 -999 -999 -999 -999 -999
2008-09-12 16:00 51°16.022 2°51.003 -999 -999 -999 -999 -999
2008-09-12 16:02 51°15.793 2°51.506 -999 -999 -999 -999 -999
2008-09-12 16:04 51°15.564 2°52.006 -999 -999 -999 -999 -999
2008-09-12 16:06 51°15.349 2°52.514 -999 -999 -999 -999 -999
2008-09-12 16:08 51°15.179 2°53.053 -999 -999 -999 -999 -999
2008-09-12 16:10 51°15.015 2°53.596 -999 -999 -999 -999 -999
2008-09-12 16:12 51°14.831 2°54.126 -999 -999 -999 -999 -999
2008-09-12 16:14 51°14.608 2°54.618 -999 -999 -999 -999 -999
2008-09-12 16:16 51°14.367 2°55.083 -999 -999 -999 -999 -999
2008-09-12 16:18 51°14.091 2°55.443 -999 -999 -999 -999 -999
2008-09-12 16:20 51°13.833 2°55.626 -999 -999 -999 -999 -999
2008-09-12 16:22 51°13.708 2°55.796 -999 -999 -999 -999 -999
2008-09-12 16:24 51°13.632 2°55.964 -999 -999 -999 -999 -999
2008-09-12 16:26 51°13.602 2°56.077 -999 -999 -999 -999 -999